Terminal Aerodrome Forecast
Issued by NWS La Crosse, WI

Current Version | Previous Version | Text Only | Print | Product List | Glossary On
Versions: 1 2 3 4 5 6 7 8 9 10 11 12 13 14 15 16 17 18 19 20 21 22
000
FTUS43 KARX 141124
TAFLSE
TAF
KLSE 141124Z 1412/1512 34004KT P6SM SKC
     FM141600 24007KT P6SM OVC040
     FM142200 27006KT P6SM OVC025
     FM150100 30012KT P6SM -SHSN OVC025=

USA.gov is the U.S. government's official web portal to all federal, state and local government web resources and services.